sensor_id;sensor_type;location;lat;lon;timestamp;pressure;altitude;pressure_sealevel;temperature;humidity
79118;BME280;68523;51.336;-0.846;2024-03-02T00:00:00;98035.0;;;3.23;101.3
79118;BME280;68523;51.336;-0.846;2024-03-02T00:03:00;98045.0;;;3.31;101.2
79118;BME280;68523;51.336;-0.846;2024-03-02T00:06:00;98045.0;;;3.29;101.3
79118;BME280;68523;51.336;-0.846;2024-03-02T00:09:00;98035.0;;;3.29;101.4
79118;BME280;68523;51.336;-0.846;2024-03-02T00:12:00;98045.0;;;3.31;101.5
79118;BME280;68523;51.336;-0.846;2024-03-02T00:15:01;98045.0;;;3.32;101.5
79118;BME280;68523;51.336;-0.846;2024-03-02T00:18:01;98045.0;;;3.34;101.6
79118;BME280;68523;51.336;-0.846;2024-03-02T00:21:00;98045.0;;;3.33;101.6
79118;BME280;68523;51.336;-0.846;2024-03-02T00:24:01;98045.0;;;3.35;101.2
79118;BME280;68523;51.336;-0.846;2024-03-02T00:27:01;98045.0;;;3.34;101.1
79118;BME280;68523;51.336;-0.846;2024-03-02T00:30:00;98045.0;;;3.34;101.2
79118;BME280;68523;51.336;-0.846;2024-03-02T00:33:00;98035.0;;;3.36;101.0
79118;BME280;68523;51.336;-0.846;2024-03-02T00:36:01;98035.0;;;3.35;101.3
79118;BME280;68523;51.336;-0.846;2024-03-02T00:39:00;98025.0;;;3.25;101.5
79118;BME280;68523;51.336;-0.846;2024-03-02T00:42:00;98025.0;;;3.16;101.6
79118;BME280;68523;51.336;-0.846;2024-03-02T00:45:00;98025.0;;;3.15;101.7
79118;BME280;68523;51.336;-0.846;2024-03-02T00:48:00;98015.0;;;3.14;101.7
79118;BME280;68523;51.336;-0.846;2024-03-02T00:51:00;98015.0;;;3.08;101.8
79118;BME280;68523;51.336;-0.846;2024-03-02T00:54:01;98015.0;;;2.99;101.8
79118;BME280;68523;51.336;-0.846;2024-03-02T00:57:00;98015.0;;;2.98;101.8
79118;BME280;68523;51.336;-0.846;2024-03-02T01:00:00;98015.0;;;2.99;101.9
79118;BME280;68523;51.336;-0.846;2024-03-02T01:03:00;98015.0;;;2.97;102.0
79118;BME280;68523;51.336;-0.846;2024-03-02T01:06:00;98005.0;;;2.99;102.0
79118;BME280;68523;51.336;-0.846;2024-03-02T01:09:00;97995.0;;;2.96;102.0
79118;BME280;68523;51.336;-0.846;2024-03-02T01:12:00;97985.0;;;2.90;101.9
79118;BME280;68523;51.336;-0.846;2024-03-02T01:15:00;97985.0;;;2.91;101.8
79118;BME280;68523;51.336;-0.846;2024-03-02T01:18:00;97995.0;;;2.90;101.7
79118;BME280;68523;51.336;-0.846;2024-03-02T01:21:00;97985.0;;;2.87;101.5
79118;BME280;68523;51.336;-0.846;2024-03-02T01:24:00;97985.0;;;2.77;101.6
79118;BME280;68523;51.336;-0.846;2024-03-02T01:27:00;97985.0;;;2.72;101.7
79118;BME280;68523;51.336;-0.846;2024-03-02T01:30:00;97985.0;;;2.68;101.9
79118;BME280;68523;51.336;-0.846;2024-03-02T01:33:00;97995.0;;;2.72;102.0
79118;BME280;68523;51.336;-0.846;2024-03-02T01:36:00;97995.0;;;2.85;102.1
79118;BME280;68523;51.336;-0.846;2024-03-02T01:39:00;97995.0;;;2.90;102.0
79118;BME280;68523;51.336;-0.846;2024-03-02T01:42:00;97985.0;;;2.98;102.0
79118;BME280;68523;51.336;-0.846;2024-03-02T01:45:00;97985.0;;;3.02;102.0
79118;BME280;68523;51.336;-0.846;2024-03-02T01:48:00;97995.0;;;3.03;102.1
79118;BME280;68523;51.336;-0.846;2024-03-02T01:51:00;97995.0;;;3.13;101.9
79118;BME280;68523;51.336;-0.846;2024-03-02T01:54:00;97995.0;;;3.17;101.7
79118;BME280;68523;51.336;-0.846;2024-03-02T01:57:00;97995.0;;;3.24;101.3
79118;BME280;68523;51.336;-0.846;2024-03-02T02:00:00;97995.0;;;3.25;101.4
79118;BME280;68523;51.336;-0.846;2024-03-02T02:03:00;97995.0;;;3.27;101.5
79118;BME280;68523;51.336;-0.846;2024-03-02T02:06:00;97985.0;;;3.27;101.5
79118;BME280;68523;51.336;-0.846;2024-03-02T02:09:00;97985.0;;;3.29;101.4
79118;BME280;68523;51.336;-0.846;2024-03-02T02:12:00;97975.0;;;3.28;101.5
79118;BME280;68523;51.336;-0.846;2024-03-02T02:15:00;97985.0;;;3.27;103.9
79118;BME280;68523;51.336;-0.846;2024-03-02T02:18:00;97975.0;;;3.25;103.9
79118;BME280;68523;51.336;-0.846;2024-03-02T02:21:00;97975.0;;;3.28;103.9
79118;BME280;68523;51.336;-0.846;2024-03-02T02:24:00;97965.0;;;3.24;103.9
79118;BME280;68523;51.336;-0.846;2024-03-02T02:27:00;97965.0;;;3.27;103.9
79118;BME280;68523;51.336;-0.846;2024-03-02T02:30:00;97965.0;;;3.25;103.9
79118;BME280;68523;51.336;-0.846;2024-03-02T02:33:00;97945.0;;;3.23;103.9
79118;BME280;68523;51.336;-0.846;2024-03-02T02:36:00;97935.0;;;3.19;103.9
79118;BME280;68523;51.336;-0.846;2024-03-02T02:39:02;97935.0;;;3.17;103.9
79118;BME280;68523;51.336;-0.846;2024-03-02T02:42:00;97935.0;;;3.19;103.9
79118;BME280;68523;51.336;-0.846;2024-03-02T02:45:00;97925.0;;;3.17;103.9
79118;BME280;68523;51.336;-0.846;2024-03-02T02:48:00;97925.0;;;3.19;103.9
79118;BME280;68523;51.336;-0.846;2024-03-02T02:51:00;97915.0;;;3.24;103.9
79118;BME280;68523;51.336;-0.846;2024-03-02T02:54:00;97905.0;;;3.17;103.9
79118;BME280;68523;51.336;-0.846;2024-03-02T02:57:00;97905.0;;;3.13;103.9
79118;BME280;68523;51.336;-0.846;2024-03-02T03:00:00;97905.0;;;3.13;103.9
79118;BME280;68523;51.336;-0.846;2024-03-02T03:03:00;97895.0;;;3.16;103.9
79118;BME280;68523;51.336;-0.846;2024-03-02T03:06:00;97885.0;;;3.18;103.9
79118;BME280;68523;51.336;-0.846;2024-03-02T03:09:00;97885.0;;;3.13;103.9
79118;BME280;68523;51.336;-0.846;2024-03-02T03:12:00;97875.0;;;3.07;103.8
79118;BME280;68523;51.336;-0.846;2024-03-02T03:15:01;97875.0;;;3.05;103.8
79118;BME280;68523;51.336;-0.846;2024-03-02T03:18:00;97875.0;;;3.07;103.8
79118;BME280;68523;51.336;-0.846;2024-03-02T03:21:00;97875.0;;;3.05;103.8
79118;BME280;68523;51.336;-0.846;2024-03-02T03:24:00;97865.0;;;3.03;103.8
79118;BME280;68523;51.336;-0.846;2024-03-02T03:27:00;97865.0;;;2.97;103.8
79118;BME280;68523;51.336;-0.846;2024-03-02T03:30:00;97855.0;;;3.00;103.8
79118;BME280;68523;51.336;-0.846;2024-03-02T03:33:00;97855.0;;;3.04;103.8
79118;BME280;68523;51.336;-0.846;2024-03-02T03:36:00;97855.0;;;3.10;103.9
79118;BME280;68523;51.336;-0.846;2024-03-02T03:39:00;97855.0;;;3.13;103.9
79118;BME280;68523;51.336;-0.846;2024-03-02T03:42:00;97845.0;;;3.22;103.9
79118;BME280;68523;51.336;-0.846;2024-03-02T03:45:00;97835.0;;;3.26;103.9
79118;BME280;68523;51.336;-0.846;2024-03-02T03:48:00;97825.0;;;3.26;103.9
79118;BME280;68523;51.336;-0.846;2024-03-02T03:51:00;97825.0;;;3.30;103.9
79118;BME280;68523;51.336;-0.846;2024-03-02T03:54:00;97815.0;;;3.40;104.0
79118;BME280;68523;51.336;-0.846;2024-03-02T03:57:00;97815.0;;;3.46;104.0
79118;BME280;68523;51.336;-0.846;2024-03-02T04:00:00;97815.0;;;3.63;104.0
79118;BME280;68523;51.336;-0.846;2024-03-02T04:03:00;97795.0;;;3.69;103.8
79118;BME280;68523;51.336;-0.846;2024-03-02T04:06:00;97795.0;;;3.75;103.6
79118;BME280;68523;51.336;-0.846;2024-03-02T04:09:00;97795.0;;;3.85;103.1
79118;BME280;68523;51.336;-0.846;2024-03-02T04:12:00;97795.0;;;4.00;102.3
79118;BME280;68523;51.336;-0.846;2024-03-02T04:15:00;97795.0;;;4.07;102.0
79118;BME280;68523;51.336;-0.846;2024-03-02T04:18:00;97795.0;;;4.05;102.1
79118;BME280;68523;51.336;-0.846;2024-03-02T04:21:00;97785.0;;;4.19;101.9
79118;BME280;68523;51.336;-0.846;2024-03-02T04:24:00;97795.0;;;4.43;100.7
79118;BME280;68523;51.336;-0.846;2024-03-02T04:27:00;97795.0;;;4.37;101.0
79118;BME280;68523;51.336;-0.846;2024-03-02T04:30:00;97795.0;;;4.40;101.0
79118;BME280;68523;51.336;-0.846;2024-03-02T04:33:00;97795.0;;;4.40;101.1
79118;BME280;68523;51.336;-0.846;2024-03-02T04:36:00;97795.0;;;4.40;101.2
79118;BME280;68523;51.336;-0.846;2024-03-02T04:39:00;97795.0;;;4.40;101.3
79118;BME280;68523;51.336;-0.846;2024-03-02T04:42:00;97785.0;;;4.43;101.1
79118;BME280;68523;51.336;-0.846;2024-03-02T04:45:00;97775.0;;;4.48;101.0
79118;BME280;68523;51.336;-0.846;2024-03-02T04:48:00;97765.0;;;4.49;101.1
79118;BME280;68523;51.336;-0.846;2024-03-02T04:51:00;97765.0;;;4.54;100.8
79118;BME280;68523;51.336;-0.846;2024-03-02T04:54:00;97765.0;;;4.68;100.3
79118;BME280;68523;51.336;-0.846;2024-03-02T04:57:00;97755.0;;;4.64;100.8
79118;BME280;68523;51.336;-0.846;2024-03-02T05:00:00;97745.0;;;4.60;101.2
79118;BME280;68523;51.336;-0.846;2024-03-02T05:03:00;97755.0;;;4.69;100.9
79118;BME280;68523;51.336;-0.846;2024-03-02T05:06:00;97745.0;;;4.68;101.1
79118;BME280;68523;51.336;-0.846;2024-03-02T05:09:00;97755.0;;;4.71;100.9
79118;BME280;68523;51.336;-0.846;2024-03-02T05:12:00;97745.0;;;4.74;100.8
79118;BME280;68523;51.336;-0.846;2024-03-02T05:15:00;97745.0;;;4.79;100.6
79118;BME280;68523;51.336;-0.846;2024-03-02T05:18:00;97735.0;;;4.80;100.8
79118;BME280;68523;51.336;-0.846;2024-03-02T05:21:00;97735.0;;;4.84;100.8
79118;BME280;68523;51.336;-0.846;2024-03-02T05:24:00;97745.0;;;4.94;101.1
79118;BME280;68523;51.336;-0.846;2024-03-02T05:27:00;97755.0;;;4.92;100.6
79118;BME280;68523;51.336;-0.846;2024-03-02T05:30:00;97755.0;;;4.89;100.9
79118;BME280;68523;51.336;-0.846;2024-03-02T05:33:00;97755.0;;;4.87;100.3
79118;BME280;68523;51.336;-0.846;2024-03-02T05:36:00;97755.0;;;4.88;100.5
79118;BME280;68523;51.336;-0.846;2024-03-02T05:39:00;97755.0;;;4.91;100.4
79118;BME280;68523;51.336;-0.846;2024-03-02T05:42:00;97755.0;;;4.85;100.9
79118;BME280;68523;51.336;-0.846;2024-03-02T05:45:00;97755.0;;;4.88;100.5
79118;BME280;68523;51.336;-0.846;2024-03-02T05:48:00;97755.0;;;4.83;101.1
79118;BME280;68523;51.336;-0.846;2024-03-02T05:51:00;97755.0;;;4.88;100.7
79118;BME280;68523;51.336;-0.846;2024-03-02T05:54:00;97755.0;;;4.84;101.3
79118;BME280;68523;51.336;-0.846;2024-03-02T05:57:00;97755.0;;;4.84;101.6
79118;BME280;68523;51.336;-0.846;2024-03-02T06:00:00;97755.0;;;4.83;101.6
79118;BME280;68523;51.336;-0.846;2024-03-02T06:03:00;97755.0;;;4.83;100.9
79118;BME280;68523;51.336;-0.846;2024-03-02T06:06:00;97765.0;;;4.83;101.1
79118;BME280;68523;51.336;-0.846;2024-03-02T06:09:00;97755.0;;;4.80;101.0
79118;BME280;68523;51.336;-0.846;2024-03-02T06:12:00;97765.0;;;4.86;101.0
79118;BME280;68523;51.336;-0.846;2024-03-02T06:15:00;97765.0;;;4.81;101.4
79118;BME280;68523;51.336;-0.846;2024-03-02T06:18:00;97765.0;;;4.74;101.0
79118;BME280;68523;51.336;-0.846;2024-03-02T06:21:00;97765.0;;;4.80;99.8
79118;BME280;68523;51.336;-0.846;2024-03-02T06:24:00;97765.0;;;4.67;100.8
79118;BME280;68523;51.336;-0.846;2024-03-02T06:27:00;97765.0;;;4.58;100.3
79118;BME280;68523;51.336;-0.846;2024-03-02T06:30:00;97765.0;;;4.49;100.7
79118;BME280;68523;51.336;-0.846;2024-03-02T06:33:00;97765.0;;;4.41;100.7
79118;BME280;68523;51.336;-0.846;2024-03-02T06:36:00;97765.0;;;4.35;100.8
79118;BME280;68523;51.336;-0.846;2024-03-02T06:39:00;97775.0;;;4.35;100.6
79118;BME280;68523;51.336;-0.846;2024-03-02T06:42:00;97775.0;;;4.35;100.9
79118;BME280;68523;51.336;-0.846;2024-03-02T06:45:00;97765.0;;;4.38;100.6
79118;BME280;68523;51.336;-0.846;2024-03-02T06:48:00;97775.0;;;4.34;100.4
79118;BME280;68523;51.336;-0.846;2024-03-02T06:51:00;97775.0;;;4.28;100.8
79118;BME280;68523;51.336;-0.846;2024-03-02T06:54:00;97775.0;;;4.25;101.1
79118;BME280;68523;51.336;-0.846;2024-03-02T06:57:00;97775.0;;;4.25;100.9
79118;BME280;68523;51.336;-0.846;2024-03-02T07:00:00;97775.0;;;4.18;100.5
79118;BME280;68523;51.336;-0.846;2024-03-02T07:03:00;97775.0;;;4.09;100.6
79118;BME280;68523;51.336;-0.846;2024-03-02T07:06:00;97785.0;;;4.05;101.1
79118;BME280;68523;51.336;-0.846;2024-03-02T07:09:00;97785.0;;;4.15;100.5
79118;BME280;68523;51.336;-0.846;2024-03-02T07:12:00;97795.0;;;4.11;100.5
79118;BME280;68523;51.336;-0.846;2024-03-02T07:15:00;97805.0;;;4.06;100.9
79118;BME280;68523;51.336;-0.846;2024-03-02T07:18:00;97795.0;;;4.12;101.1
79118;BME280;68523;51.336;-0.846;2024-03-02T07:21:00;97805.0;;;4.19;100.8
79118;BME280;68523;51.336;-0.846;2024-03-02T07:24:00;97815.0;;;4.30;100.5
79118;BME280;68523;51.336;-0.846;2024-03-02T07:27:00;97805.0;;;4.30;100.9
79118;BME280;68523;51.336;-0.846;2024-03-02T07:30:00;97805.0;;;4.33;101.0
79118;BME280;68523;51.336;-0.846;2024-03-02T07:33:00;97815.0;;;4.33;101.1
79118;BME280;68523;51.336;-0.846;2024-03-02T07:36:00;97815.0;;;4.38;100.4
79118;BME280;68523;51.336;-0.846;2024-03-02T07:39:00;97815.0;;;4.37;100.4
79118;BME280;68523;51.336;-0.846;2024-03-02T07:42:00;97815.0;;;4.35;100.6
79118;BME280;68523;51.336;-0.846;2024-03-02T07:45:00;97815.0;;;4.39;99.9
79118;BME280;68523;51.336;-0.846;2024-03-02T07:48:00;97825.0;;;4.32;100.4
79118;BME280;68523;51.336;-0.846;2024-03-02T07:51:00;97825.0;;;4.25;99.9
79118;BME280;68523;51.336;-0.846;2024-03-02T07:54:00;97835.0;;;4.15;100.4
79118;BME280;68523;51.336;-0.846;2024-03-02T07:57:00;97845.0;;;4.17;100.3
79118;BME280;68523;51.336;-0.846;2024-03-02T08:00:00;97855.0;;;4.12;100.2
79118;BME280;68523;51.336;-0.846;2024-03-02T08:03:00;97855.0;;;4.19;100.1
79118;BME280;68523;51.336;-0.846;2024-03-02T08:06:00;97865.0;;;4.16;100.2
79118;BME280;68523;51.336;-0.846;2024-03-02T08:09:00;97865.0;;;4.24;100.1
79118;BME280;68523;51.336;-0.846;2024-03-02T08:12:00;97875.0;;;4.25;99.9
79118;BME280;68523;51.336;-0.846;2024-03-02T08:15:00;97875.0;;;4.21;98.5
79118;BME280;68523;51.336;-0.846;2024-03-02T08:18:00;97875.0;;;4.17;97.9
79118;BME280;68523;51.336;-0.846;2024-03-02T08:21:00;97885.0;;;4.12;98.2
79118;BME280;68523;51.336;-0.846;2024-03-02T08:24:01;97895.0;;;4.01;98.3
79118;BME280;68523;51.336;-0.846;2024-03-02T08:27:00;97905.0;;;3.96;98.5
79118;BME280;68523;51.336;-0.846;2024-03-02T08:30:00;97905.0;;;3.94;98.1
79118;BME280;68523;51.336;-0.846;2024-03-02T08:33:00;97905.0;;;3.87;97.4
79118;BME280;68523;51.336;-0.846;2024-03-02T08:36:00;97915.0;;;3.85;98.1
79118;BME280;68523;51.336;-0.846;2024-03-02T08:39:00;97925.0;;;3.59;96.5
79118;BME280;68523;51.336;-0.846;2024-03-02T08:42:00;97925.0;;;3.48;96.8
79118;BME280;68523;51.336;-0.846;2024-03-02T08:45:01;97935.0;;;3.44;96.3
79118;BME280;68523;51.336;-0.846;2024-03-02T08:48:00;97935.0;;;3.42;97.0
79118;BME280;68523;51.336;-0.846;2024-03-02T08:51:00;97945.0;;;3.41;96.8
79118;BME280;68523;51.336;-0.846;2024-03-02T08:54:00;97955.0;;;3.36;96.9
79118;BME280;68523;51.336;-0.846;2024-03-02T08:57:00;97955.0;;;3.34;96.7
79118;BME280;68523;51.336;-0.846;2024-03-02T09:00:01;97955.0;;;3.42;96.9
79118;BME280;68523;51.336;-0.846;2024-03-02T09:03:00;97965.0;;;3.41;96.5
79118;BME280;68523;51.336;-0.846;2024-03-02T09:06:00;97965.0;;;3.48;96.9
79118;BME280;68523;51.336;-0.846;2024-03-02T09:09:00;97965.0;;;3.51;97.4
79118;BME280;68523;51.336;-0.846;2024-03-02T09:12:00;97975.0;;;3.55;96.5
79118;BME280;68523;51.336;-0.846;2024-03-02T09:15:00;97975.0;;;3.51;96.8
79118;BME280;68523;51.336;-0.846;2024-03-02T09:18:00;97985.0;;;3.53;97.4
79118;BME280;68523;51.336;-0.846;2024-03-02T09:21:00;97975.0;;;3.67;96.8
79118;BME280;68523;51.336;-0.846;2024-03-02T09:24:00;97975.0;;;3.74;95.6
79118;BME280;68523;51.336;-0.846;2024-03-02T09:27:00;97985.0;;;3.65;95.6
79118;BME280;68523;51.336;-0.846;2024-03-02T09:30:00;97985.0;;;3.82;96.2
79118;BME280;68523;51.336;-0.846;2024-03-02T09:33:00;97985.0;;;4.01;95.7
79118;BME280;68523;51.336;-0.846;2024-03-02T09:36:00;97975.0;;;4.00;95.3
79118;BME280;68523;51.336;-0.846;2024-03-02T09:39:00;97985.0;;;4.05;96.3
79118;BME280;68523;51.336;-0.846;2024-03-02T09:42:00;97985.0;;;4.19;95.7
79118;BME280;68523;51.336;-0.846;2024-03-02T09:45:01;97985.0;;;4.06;95.7
79118;BME280;68523;51.336;-0.846;2024-03-02T09:48:00;97995.0;;;4.24;95.4
79118;BME280;68523;51.336;-0.846;2024-03-02T09:51:00;97995.0;;;4.24;95.5
79118;BME280;68523;51.336;-0.846;2024-03-02T09:54:00;97995.0;;;4.35;95.5
79118;BME280;68523;51.336;-0.846;2024-03-02T09:57:01;97995.0;;;4.50;95.9
79118;BME280;68523;51.336;-0.846;2024-03-02T10:00:00;97995.0;;;4.55;96.2
79118;BME280;68523;51.336;-0.846;2024-03-02T10:03:00;97995.0;;;4.69;96.2
79118;BME280;68523;51.336;-0.846;2024-03-02T10:09:00;97995.0;;;4.81;95.1
79118;BME280;68523;51.336;-0.846;2024-03-02T10:12:04;97995.0;;;5.61;93.7
79118;BME280;68523;51.336;-0.846;2024-03-02T10:15:03;98005.0;;;5.78;92.7
79118;BME280;68523;51.336;-0.846;2024-03-02T10:18:00;98015.0;;;5.92;94.6
79118;BME280;68523;51.336;-0.846;2024-03-02T10:24:06;98015.0;;;5.03;93.9
79118;BME280;68523;51.336;-0.846;2024-03-02T10:27:00;98015.0;;;4.93;93.7
79118;BME280;68523;51.336;-0.846;2024-03-02T10:30:02;98025.0;;;4.95;93.6
79118;BME280;68523;51.336;-0.846;2024-03-02T10:33:00;98025.0;;;5.14;94.7
79118;BME280;68523;51.336;-0.846;2024-03-02T10:36:00;98025.0;;;5.60;93.8
79118;BME280;68523;51.336;-0.846;2024-03-02T10:39:01;98025.0;;;5.74;93.0
79118;BME280;68523;51.336;-0.846;2024-03-02T10:42:01;98025.0;;;5.24;92.7
79118;BME280;68523;51.336;-0.846;2024-03-02T10:45:00;98035.0;;;5.20;91.8
79118;BME280;68523;51.336;-0.846;2024-03-02T10:48:01;98035.0;;;5.41;94.1
79118;BME280;68523;51.336;-0.846;2024-03-02T10:51:00;98035.0;;;5.32;92.9
79118;BME280;68523;51.336;-0.846;2024-03-02T10:54:01;98045.0;;;5.35;93.3
79118;BME280;68523;51.336;-0.846;2024-03-02T10:57:00;98045.0;;;5.19;92.5
79118;BME280;68523;51.336;-0.846;2024-03-02T11:00:02;98045.0;;;5.28;92.8
79118;BME280;68523;51.336;-0.846;2024-03-02T11:03:04;98055.0;;;5.57;92.7
79118;BME280;68523;51.336;-0.846;2024-03-02T11:06:00;98055.0;;;5.81;91.1
79118;BME280;68523;51.336;-0.846;2024-03-02T11:09:01;98045.0;;;5.81;91.4
79118;BME280;68523;51.336;-0.846;2024-03-02T11:12:03;98055.0;;;6.12;91.2
79118;BME280;68523;51.336;-0.846;2024-03-02T11:15:00;98055.0;;;5.91;89.6
79118;BME280;68523;51.336;-0.846;2024-03-02T11:18:00;98055.0;;;5.93;89.3
79118;BME280;68523;51.336;-0.846;2024-03-02T11:21:01;98055.0;;;6.04;88.5
79118;BME280;68523;51.336;-0.846;2024-03-02T11:24:00;98055.0;;;6.05;87.9
79118;BME280;68523;51.336;-0.846;2024-03-02T11:27:01;98055.0;;;6.27;88.4
79118;BME280;68523;51.336;-0.846;2024-03-02T11:30:00;98065.0;;;6.12;90.0
79118;BME280;68523;51.336;-0.846;2024-03-02T11:33:00;98065.0;;;5.81;90.1
79118;BME280;68523;51.336;-0.846;2024-03-02T11:36:00;98075.0;;;5.82;90.5
79118;BME280;68523;51.336;-0.846;2024-03-02T11:39:00;98075.0;;;5.65;90.0
79118;BME280;68523;51.336;-0.846;2024-03-02T11:42:00;98065.0;;;5.82;90.0
79118;BME280;68523;51.336;-0.846;2024-03-02T11:45:00;98075.0;;;5.96;90.3
79118;BME280;68523;51.336;-0.846;2024-03-02T11:48:00;98075.0;;;6.37;88.8
79118;BME280;68523;51.336;-0.846;2024-03-02T11:51:00;98065.0;;;6.09;90.5
79118;BME280;68523;51.336;-0.846;2024-03-02T11:54:00;98075.0;;;5.95;89.1
79118;BME280;68523;51.336;-0.846;2024-03-02T11:57:01;98075.0;;;6.08;88.9
79118;BME280;68523;51.336;-0.846;2024-03-02T12:00:00;98075.0;;;5.98;88.0
79118;BME280;68523;51.336;-0.846;2024-03-02T12:03:01;98075.0;;;6.29;88.0
79118;BME280;68523;51.336;-0.846;2024-03-02T12:06:00;98075.0;;;8.67;82.1
79118;BME280;68523;51.336;-0.846;2024-03-02T12:09:00;98075.0;;;7.82;81.6
79118;BME280;68523;51.336;-0.846;2024-03-02T12:12:03;98075.0;;;6.82;84.9
79118;BME280;68523;51.336;-0.846;2024-03-02T12:15:00;98075.0;;;6.53;84.2
79118;BME280;68523;51.336;-0.846;2024-03-02T12:18:01;98085.0;;;6.36;85.4
79118;BME280;68523;51.336;-0.846;2024-03-02T12:21:00;98075.0;;;6.25;85.1
79118;BME280;68523;51.336;-0.846;2024-03-02T12:24:00;98085.0;;;6.33;84.3
79118;BME280;68523;51.336;-0.846;2024-03-02T12:27:00;98085.0;;;6.40;84.4
79118;BME280;68523;51.336;-0.846;2024-03-02T12:30:00;98085.0;;;6.44;84.3
79118;BME280;68523;51.336;-0.846;2024-03-02T12:33:00;98085.0;;;6.42;86.0
79118;BME280;68523;51.336;-0.846;2024-03-02T12:36:00;98085.0;;;7.34;81.3
79118;BME280;68523;51.336;-0.846;2024-03-02T12:39:00;98095.0;;;6.87;82.3
79118;BME280;68523;51.336;-0.846;2024-03-02T12:42:02;98095.0;;;6.55;81.5
79118;BME280;68523;51.336;-0.846;2024-03-02T12:45:00;98095.0;;;8.05;78.3
79118;BME280;68523;51.336;-0.846;2024-03-02T12:48:00;98095.0;;;8.02;74.6
79118;BME280;68523;51.336;-0.846;2024-03-02T12:51:00;98095.0;;;8.39;73.7
79118;BME280;68523;51.336;-0.846;2024-03-02T12:54:00;98095.0;;;9.45;72.1
79118;BME280;68523;51.336;-0.846;2024-03-02T12:57:00;98095.0;;;9.15;71.5
79118;BME280;68523;51.336;-0.846;2024-03-02T13:00:02;98105.0;;;7.09;77.5
79118;BME280;68523;51.336;-0.846;2024-03-02T13:03:00;98105.0;;;8.22;74.6
79118;BME280;68523;51.336;-0.846;2024-03-02T13:06:00;98105.0;;;9.09;73.2
79118;BME280;68523;51.336;-0.846;2024-03-02T13:09:00;98105.0;;;9.05;72.3
79118;BME280;68523;51.336;-0.846;2024-03-02T13:12:00;98105.0;;;7.38;75.7
79118;BME280;68523;51.336;-0.846;2024-03-02T13:15:00;98115.0;;;7.22;77.2
79118;BME280;68523;51.336;-0.846;2024-03-02T13:18:00;98115.0;;;7.31;76.7
79118;BME280;68523;51.336;-0.846;2024-03-02T13:21:00;98115.0;;;8.89;75.8
79118;BME280;68523;51.336;-0.846;2024-03-02T13:24:00;98115.0;;;7.78;75.9
79118;BME280;68523;51.336;-0.846;2024-03-02T13:27:00;98115.0;;;7.90;77.7
79118;BME280;68523;51.336;-0.846;2024-03-02T13:30:01;98115.0;;;7.77;77.5
79118;BME280;68523;51.336;-0.846;2024-03-02T13:33:00;98115.0;;;7.80;77.7
79118;BME280;68523;51.336;-0.846;2024-03-02T13:36:00;98125.0;;;7.59;77.8
79118;BME280;68523;51.336;-0.846;2024-03-02T13:39:00;98125.0;;;7.42;78.2
79118;BME280;68523;51.336;-0.846;2024-03-02T13:42:00;98115.0;;;7.46;79.1
79118;BME280;68523;51.336;-0.846;2024-03-02T13:45:01;98115.0;;;7.29;79.2
79118;BME280;68523;51.336;-0.846;2024-03-02T13:48:00;98115.0;;;7.10;77.7
79118;BME280;68523;51.336;-0.846;2024-03-02T13:51:00;98115.0;;;7.00;79.5
79118;BME280;68523;51.336;-0.846;2024-03-02T13:54:00;98125.0;;;6.85;79.9
79118;BME280;68523;51.336;-0.846;2024-03-02T13:57:00;98125.0;;;6.76;81.4
79118;BME280;68523;51.336;-0.846;2024-03-02T14:00:01;98145.0;;;6.03;85.7
79118;BME280;68523;51.336;-0.846;2024-03-02T14:03:00;98135.0;;;5.80;90.6
79118;BME280;68523;51.336;-0.846;2024-03-02T14:06:00;98135.0;;;6.28;90.5
79118;BME280;68523;51.336;-0.846;2024-03-02T14:09:00;98135.0;;;6.51;93.0
79118;BME280;68523;51.336;-0.846;2024-03-02T14:12:00;98135.0;;;6.71;91.1
79118;BME280;68523;51.336;-0.846;2024-03-02T14:15:00;98135.0;;;6.69;88.6
79118;BME280;68523;51.336;-0.846;2024-03-02T14:18:01;98135.0;;;6.82;90.2
79118;BME280;68523;51.336;-0.846;2024-03-02T14:21:00;98135.0;;;6.56;89.1
79118;BME280;68523;51.336;-0.846;2024-03-02T14:24:00;98135.0;;;6.62;88.7
79118;BME280;68523;51.336;-0.846;2024-03-02T14:27:00;98135.0;;;6.75;87.3
79118;BME280;68523;51.336;-0.846;2024-03-02T14:30:00;98135.0;;;7.04;88.3
79118;BME280;68523;51.336;-0.846;2024-03-02T14:33:00;98145.0;;;7.22;86.1
79118;BME280;68523;51.336;-0.846;2024-03-02T14:36:00;98145.0;;;7.72;85.4
79118;BME280;68523;51.336;-0.846;2024-03-02T14:39:00;98145.0;;;7.65;86.0
79118;BME280;68523;51.336;-0.846;2024-03-02T14:42:00;98145.0;;;7.24;85.4
79118;BME280;68523;51.336;-0.846;2024-03-02T14:45:00;98145.0;;;7.29;85.2
79118;BME280;68523;51.336;-0.846;2024-03-02T14:48:00;98145.0;;;7.16;83.3
79118;BME280;68523;51.336;-0.846;2024-03-02T14:51:00;98145.0;;;7.67;82.0
79118;BME280;68523;51.336;-0.846;2024-03-02T14:54:00;98145.0;;;7.62;83.1
79118;BME280;68523;51.336;-0.846;2024-03-02T14:57:00;98145.0;;;7.53;81.2
79118;BME280;68523;51.336;-0.846;2024-03-02T15:00:00;98145.0;;;7.57;82.5
79118;BME280;68523;51.336;-0.846;2024-03-02T15:03:00;98155.0;;;8.01;80.5
79118;BME280;68523;51.336;-0.846;2024-03-02T15:06:01;98155.0;;;7.91;79.4
79118;BME280;68523;51.336;-0.846;2024-03-02T15:09:00;98155.0;;;7.71;78.9
79118;BME280;68523;51.336;-0.846;2024-03-02T15:12:00;98145.0;;;7.58;78.7
79118;BME280;68523;51.336;-0.846;2024-03-02T15:15:00;98155.0;;;7.39;79.6
79118;BME280;68523;51.336;-0.846;2024-03-02T15:18:00;98155.0;;;7.34;81.5
79118;BME280;68523;51.336;-0.846;2024-03-02T15:21:00;98155.0;;;7.30;80.8
79118;BME280;68523;51.336;-0.846;2024-03-02T15:24:00;98155.0;;;7.41;80.9
79118;BME280;68523;51.336;-0.846;2024-03-02T15:27:00;98165.0;;;7.27;80.6
79118;BME280;68523;51.336;-0.846;2024-03-02T15:30:00;98165.0;;;7.16;80.7
79118;BME280;68523;51.336;-0.846;2024-03-02T15:33:00;98165.0;;;7.14;79.4
79118;BME280;68523;51.336;-0.846;2024-03-02T15:36:00;98175.0;;;7.10;79.7
79118;BME280;68523;51.336;-0.846;2024-03-02T15:39:00;98175.0;;;7.01;78.8
79118;BME280;68523;51.336;-0.846;2024-03-02T15:42:00;98175.0;;;6.98;79.7
79118;BME280;68523;51.336;-0.846;2024-03-02T15:45:01;98185.0;;;7.07;80.0
79118;BME280;68523;51.336;-0.846;2024-03-02T15:48:00;98185.0;;;7.14;80.8
79118;BME280;68523;51.336;-0.846;2024-03-02T15:51:00;98195.0;;;7.33;79.6
79118;BME280;68523;51.336;-0.846;2024-03-02T15:54:00;98195.0;;;7.22;78.7
79118;BME280;68523;51.336;-0.846;2024-03-02T15:57:00;98195.0;;;7.06;78.4
79118;BME280;68523;51.336;-0.846;2024-03-02T16:00:01;98205.0;;;6.97;79.6
79118;BME280;68523;51.336;-0.846;2024-03-02T16:03:00;98205.0;;;6.76;81.6
79118;BME280;68523;51.336;-0.846;2024-03-02T16:06:00;98215.0;;;6.62;82.0
79118;BME280;68523;51.336;-0.846;2024-03-02T16:09:00;98225.0;;;6.55;81.8
79118;BME280;68523;51.336;-0.846;2024-03-02T16:12:00;98225.0;;;6.60;81.5
79118;BME280;68523;51.336;-0.846;2024-03-02T16:15:00;98225.0;;;6.68;82.2
79118;BME280;68523;51.336;-0.846;2024-03-02T16:18:00;98235.0;;;6.63;82.7